Time;durP1;ratioP1;P1;durP2;ratioP2;P2;SDS_P1;SDS_P2;PMS_P1;PMS_P2;Temp;Humidity;BMP_temperature;BMP_pressure;BME280_temperature;BME280_humidity;BME280_pressure;Samples;Min_cycle;Max_cycle;Signal;HPM_P1;HPM_P2
2023/11/19 00:02:15;;;;;;;7.93;5.33;;;6.50;99.90;;;;;;5034434;28;20179;-84
2023/11/19 00:04:41;;;;;;;7.67;4.70;;;6.50;99.90;;;;;;5034509;28;20195;-84
2023/11/19 00:07:07;;;;;;;8.20;5.20;;;6.40;99.90;;;;;;5034069;28;20175;-82
2023/11/19 00:09:37;;;;;;;8.67;4.67;;;6.40;99.90;;;;;;5034659;28;20643;-84
2023/11/19 00:12:04;;;;;;;8.87;6.00;;;6.40;99.90;;;;;;5034561;28;20505;-83
2023/11/19 00:14:29;;;;;;;7.77;5.30;;;6.40;99.90;;;;;;5034398;28;20774;-82
2023/11/19 00:16:55;;;;;;;7.00;4.53;;;6.40;99.90;;;;;;5034209;28;20437;-83
2023/11/19 00:19:21;;;;;;;5.10;3.60;;;6.50;99.90;;;;;;5034470;28;20207;-83
2023/11/19 00:21:46;;;;;;;6.23;4.10;;;6.60;99.90;;;;;;5034407;28;20179;-81
2023/11/19 00:24:12;;;;;;;5.00;3.43;;;6.60;99.90;;;;;;5034338;28;20507;-83
2023/11/19 00:26:38;;;;;;;5.97;3.90;;;6.60;99.90;;;;;;5034184;28;20640;-82
2023/11/19 00:29:04;;;;;;;6.03;4.77;;;6.60;99.90;;;;;;5034126;28;20444;-83
2023/11/19 00:31:30;;;;;;;6.13;4.17;;;6.60;99.90;;;;;;5033654;28;20534;-82
2023/11/19 00:33:55;;;;;;;6.03;3.70;;;6.40;99.90;;;;;;5034141;28;20413;-84
2023/11/19 00:36:20;;;;;;;5.50;3.57;;;6.70;99.90;;;;;;5033820;28;20226;-83
2023/11/19 00:38:46;;;;;;;5.63;4.07;;;6.70;99.90;;;;;;5034133;28;20209;-84
2023/11/19 00:41:12;;;;;;;4.90;4.10;;;6.60;99.90;;;;;;5034015;28;20602;-83
2023/11/19 00:43:37;;;;;;;3.87;2.20;;;6.70;99.90;;;;;;5034029;28;20218;-82
2023/11/19 00:46:04;;;;;;;4.73;2.80;;;6.80;99.90;;;;;;5033565;28;20199;-83
2023/11/19 00:48:29;;;;;;;4.27;2.10;;;6.70;99.90;;;;;;5034008;28;20176;-81
2023/11/19 00:50:55;;;;;;;4.93;3.07;;;6.60;99.90;;;;;;5049223;28;20532;-83
2023/11/19 00:53:20;;;;;;;4.40;2.33;;;6.50;99.90;;;;;;5033805;28;20308;-84
2023/11/19 00:55:46;;;;;;;5.10;3.03;;;6.60;99.90;;;;;;5033633;28;20268;-83
2023/11/19 00:58:11;;;;;;;4.17;2.73;;;6.70;99.90;;;;;;5027333;28;20202;-82
2023/11/19 01:00:37;;;;;;;3.63;2.80;;;6.70;99.90;;;;;;5036493;28;20192;-83
2023/11/19 01:03:02;;;;;;;3.50;2.60;;;6.80;99.90;;;;;;5052282;28;20639;-82
2023/11/19 01:05:28;;;;;;;5.10;2.30;;;6.70;99.90;;;;;;5053490;28;20184;-83
2023/11/19 01:07:54;;;;;;;2.97;2.00;;;6.70;99.90;;;;;;5053475;28;20209;-83
2023/11/19 01:10:20;;;;;;;4.20;3.30;;;6.80;99.90;;;;;;5048148;28;20180;-83
2023/11/19 01:12:46;;;;;;;4.13;1.97;;;6.80;99.90;;;;;;5015864;28;20435;-83
2023/11/19 01:15:12;;;;;;;2.93;1.80;;;6.70;99.90;;;;;;5021625;28;21012;-83
2023/11/19 01:17:38;;;;;;;3.80;1.67;;;6.70;99.90;;;;;;5038038;28;20427;-84
2023/11/19 01:20:06;;;;;;;2.83;1.17;;;6.70;99.90;;;;;;5013291;28;20427;-84
2023/11/19 01:22:31;;;;;;;3.97;2.27;;;6.70;99.90;;;;;;5013233;28;20227;-84
2023/11/19 01:24:58;;;;;;;2.70;1.50;;;6.70;99.90;;;;;;5013203;28;20423;-84
2023/11/19 01:27:24;;;;;;;2.93;1.70;;;6.60;99.90;;;;;;5013072;28;20175;-84
2023/11/19 01:29:49;;;;;;;3.40;1.50;;;6.60;99.90;;;;;;5012908;28;20431;-84
2023/11/19 01:32:15;;;;;;;2.50;1.37;;;6.60;99.90;;;;;;5012855;28;20419;-84
2023/11/19 01:34:41;;;;;;;4.00;1.50;;;6.70;99.90;;;;;;5012956;28;20645;-84
2023/11/19 01:37:06;;;;;;;2.67;0.80;;;6.40;99.90;;;;;;5013076;28;20176;-84
2023/11/19 01:39:32;;;;;;;3.10;2.20;;;6.60;99.90;;;;;;5013083;28;20899;-83
2023/11/19 01:41:57;;;;;;;2.90;1.60;;;6.70;99.90;;;;;;5012895;28;20202;-84
2023/11/19 01:44:23;;;;;;;2.83;1.43;;;6.70;99.90;;;;;;5012920;28;20535;-84
2023/11/19 01:46:49;;;;;;;3.07;2.07;;;6.70;99.90;;;;;;5012631;28;20167;-84
2023/11/19 01:49:15;;;;;;;2.30;1.80;;;6.70;99.90;;;;;;5012894;28;20566;-84
2023/11/19 01:51:41;;;;;;;2.40;1.40;;;6.70;99.90;;;;;;5012944;28;20414;-85
2023/11/19 01:54:07;;;;;;;2.60;1.53;;;6.60;99.90;;;;;;5012917;28;20417;-85
2023/11/19 01:56:34;;;;;;;2.83;1.50;;;6.60;99.90;;;;;;5028131;28;20482;-86
2023/11/19 01:59:00;;;;;;;2.27;1.47;;;6.50;99.90;;;;;;5012843;28;20469;-86
2023/11/19 02:01:26;;;;;;;2.80;1.50;;;6.60;99.90;;;;;;5012464;28;20499;-85
2023/11/19 02:03:52;;;;;;;1.83;0.93;;;6.60;99.90;;;;;;5028052;28;20426;-85
2023/11/19 02:06:18;;;;;;;1.63;0.77;;;6.60;99.90;;;;;;5023666;28;21012;-86
2023/11/19 02:08:43;;;;;;;2.53;1.10;;;6.60;99.90;;;;;;5032477;28;20174;-86
2023/11/19 02:11:09;;;;;;;2.60;1.13;;;6.70;99.90;;;;;;5032348;28;20216;-85
2023/11/19 02:13:37;;;;;;;1.47;0.93;;;6.80;99.90;;;;;;5032520;28;20167;-86
2023/11/19 02:16:04;;;;;;;2.77;1.10;;;6.80;99.90;;;;;;5047356;28;20563;-85
2023/11/19 02:18:29;;;;;;;2.00;0.90;;;6.70;99.90;;;;;;5032322;28;20419;-85
2023/11/19 02:21:01;;;;;;;2.53;0.70;;;6.70;99.90;;;;;;5026264;28;20935;-86
2023/11/19 02:23:28;;;;;;;1.90;1.00;;;6.70;99.90;;;;;;5032026;28;20209;-83
2023/11/19 02:26:19;;;;;;;1.97;0.93;;;6.80;99.90;;;;;;5047649;28;20446;-84
2023/11/19 02:28:45;;;;;;;1.60;0.70;;;6.80;99.90;;;;;;5033174;28;20415;-85
2023/11/19 02:31:11;;;;;;;2.23;0.77;;;6.80;99.90;;;;;;5035616;28;20534;-85
2023/11/19 02:33:37;;;;;;;2.17;0.90;;;6.60;99.90;;;;;;5051480;28;20192;-85
2023/11/19 02:36:04;;;;;;;1.90;1.20;;;6.80;99.90;;;;;;5051327;28;20251;-85
2023/11/19 02:38:30;;;;;;;1.90;0.80;;;6.80;99.90;;;;;;5035915;28;20431;-84
2023/11/19 02:40:56;;;;;;;1.63;0.70;;;6.80;99.90;;;;;;5051324;28;20434;-83
2023/11/19 02:43:22;;;;;;;1.80;0.50;;;6.80;99.90;;;;;;5035827;28;20417;-85
2023/11/19 02:45:48;;;;;;;2.30;1.00;;;6.70;99.90;;;;;;5035559;28;20413;-84
2023/11/19 02:48:15;;;;;;;1.70;0.57;;;6.70;99.90;;;;;;5035790;28;20492;-85
2023/11/19 02:50:41;;;;;;;1.33;0.60;;;6.70;99.90;;;;;;5051024;28;20185;-85
2023/11/19 02:53:07;;;;;;;2.57;0.60;;;6.80;99.90;;;;;;5035707;28;20410;-84
2023/11/19 02:55:37;;;;;;;1.57;0.83;;;7.00;99.90;;;;;;5050824;28;20572;-84
2023/11/19 02:58:09;;;;;;;1.57;0.67;;;6.90;99.90;;;;;;5050937;28;20175;-85
2023/11/19 03:00:47;;;;;;;2.17;1.03;;;6.80;99.90;;;;;;5035265;28;20498;-85
2023/11/19 03:03:20;;;;;;;1.27;0.70;;;6.80;99.90;;;;;;5035559;28;20414;-84
2023/11/19 03:05:46;;;;;;;2.27;0.70;;;6.90;99.90;;;;;;5035548;28;20419;-85
2023/11/19 03:08:12;;;;;;;1.30;0.63;;;6.60;99.90;;;;;;5050776;28;20463;-85
2023/11/19 03:10:38;;;;;;;1.27;0.80;;;6.60;99.90;;;;;;5035269;28;20873;-85
2023/11/19 03:13:04;;;;;;;2.30;0.80;;;7.00;99.90;;;;;;5035247;28;20173;-84
2023/11/19 03:15:29;;;;;;;2.50;1.30;;;7.10;99.90;;;;;;5034814;28;20839;-84
2023/11/19 03:17:55;;;;;;;1.83;0.70;;;7.00;99.90;;;;;;5035299;28;20263;-84
2023/11/19 03:20:21;;;;;;;4.07;1.57;;;6.80;99.90;;;;;;5035274;28;20174;-84
2023/11/19 03:22:46;;;;;;;1.70;1.30;;;6.80;99.90;;;;;;5035087;28;20285;-85
2023/11/19 03:25:12;;;;;;;2.43;1.57;;;7.10;99.90;;;;;;5035277;28;20167;-84
2023/11/19 03:27:39;;;;;;;2.83;1.63;;;7.40;99.90;;;;;;5035021;28;20172;-85
2023/11/19 03:30:06;;;;;;;2.53;1.17;;;7.30;99.90;;;;;;5034459;28;20422;-85
2023/11/19 03:32:35;;;;;;;1.67;0.97;;;7.20;99.90;;;;;;5034908;28;20833;-83
2023/11/19 03:35:01;;;;;;;4.33;1.97;;;7.10;99.90;;;;;;5034835;28;20508;-84
2023/11/19 03:37:26;;;;;;;2.30;1.10;;;7.20;99.90;;;;;;5034934;28;20443;-84
2023/11/19 03:39:54;;;;;;;1.80;1.30;;;7.20;99.90;;;;;;5033998;28;20738;-83
2023/11/19 03:42:20;;;;;;;1.80;1.00;;;7.10;99.90;;;;;;5034448;28;20562;-85
2023/11/19 03:44:46;;;;;;;2.23;1.00;;;7.10;99.90;;;;;;5034619;28;20402;-84
2023/11/19 03:47:11;;;;;;;4.67;1.80;;;7.10;99.90;;;;;;4993901;28;20596;-84
2023/11/19 03:49:37;;;;;;;3.27;1.63;;;7.20;99.90;;;;;;5034675;28;20174;-85
2023/11/19 03:52:03;;;;;;;2.30;1.10;;;7.20;99.90;;;;;;5050103;28;20262;-84
2023/11/19 03:54:28;;;;;;;2.93;1.77;;;7.30;99.90;;;;;;5034512;28;20172;-85
2023/11/19 03:56:54;;;;;;;3.50;1.03;;;7.40;99.90;;;;;;5033172;28;20240;-84
2023/11/19 03:59:20;;;;;;;2.47;0.87;;;7.40;99.90;;;;;;5034440;28;20187;-84
2023/11/19 04:01:46;;;;;;;1.70;1.23;;;7.50;99.90;;;;;;5034219;28;20180;-85
2023/11/19 04:04:12;;;;;;;2.53;0.70;;;7.40;99.90;;;;;;5034387;28;20476;-84
2023/11/19 04:06:37;;;;;;;3.07;1.07;;;7.60;99.90;;;;;;5034370;28;20713;-83
2023/11/19 04:09:03;;;;;;;1.93;0.70;;;7.50;99.90;;;;;;5034323;28;20514;-84
2023/11/19 04:11:29;;;;;;;1.67;0.83;;;7.60;99.90;;;;;;5049459;28;20642;-83
2023/11/19 04:13:54;;;;;;;2.33;1.30;;;7.60;99.90;;;;;;5034205;28;20160;-84
2023/11/19 04:16:27;;;;;;;1.80;1.40;;;7.50;99.90;;;;;;5033705;28;20214;-84
2023/11/19 04:18:53;;;;;;;1.80;0.83;;;7.60;99.90;;;;;;5034155;28;20172;-84
2023/11/19 04:21:18;;;;;;;1.80;0.63;;;7.70;99.90;;;;;;5049481;28;20480;-83
2023/11/19 04:23:44;;;;;;;1.57;0.90;;;;;;;;;;5033945;28;20518;-83
2023/11/19 04:26:10;;;;;;;1.53;0.73;;;;;;;;;;5033960;28;20259;-82
2023/11/19 04:28:36;;;;;;;1.33;0.50;;;;;;;;;;5033861;28;20774;-82
2023/11/19 04:31:03;;;;;;;1.47;0.80;;;;;;;;;;5033351;28;20465;-82
2023/11/19 04:33:29;;;;;;;5.20;1.07;;;;;;;;;;5033933;28;20403;-82
2023/11/19 04:35:55;;;;;;;2.73;1.00;;;;;;;;;;5032450;28;20477;-82
2023/11/19 04:38:21;;;;;;;2.73;0.90;;;;;;;;;;5048995;28;20412;-83
2023/11/19 04:40:47;;;;;;;2.00;1.00;;;;;;;;;;5027245;28;20797;-84
2023/11/19 04:43:13;;;;;;;1.70;0.57;;;;;;;;;;5025226;28;20424;-84
2023/11/19 04:45:39;;;;;;;1.70;0.53;;;;;;;;;;5027593;28;20454;-84
2023/11/19 04:48:05;;;;;;;1.20;0.80;;;;;;;;;;5032012;28;20434;-83
2023/11/19 04:50:31;;;;;;;1.40;0.60;;;;;;;;;;5032080;28;20429;-84
2023/11/19 04:52:57;;;;;;;1.80;0.97;;;;;;;;;;5031838;28;20411;-84
2023/11/19 04:55:23;;;;;;;2.30;1.13;;;;;;;;;;5033333;28;20820;-84
2023/11/19 04:57:49;;;;;;;1.87;1.00;;;;;;;;;;5033431;28;20514;-84
2023/11/19 05:00:15;;;;;;;2.23;1.40;;;;;;;;;;4992314;28;20433;-84
2023/11/19 05:02:41;;;;;;;1.90;0.90;;;;;;;;;;5033274;28;20864;-84
2023/11/19 05:05:07;;;;;;;4.00;1.10;;;;;;;;;;5033352;28;20411;-84
2023/11/19 05:07:33;;;;;;;2.40;1.03;;;;;;;;;;5033104;28;20408;-84
2023/11/19 05:09:59;;;;;;;2.37;0.93;;;;;;;;;;5031956;28;20989;-84
2023/11/19 05:12:25;;;;;;;2.80;0.97;;;;;;;;;;5033145;28;20412;-84
2023/11/19 05:14:51;;;;;;;1.90;1.07;;;;;;;;;;5032202;28;20428;-85
2023/11/19 05:17:18;;;;;;;5.43;2.33;;;;;;;;;;5032784;28;20912;-83
2023/11/19 05:19:44;;;;;;;3.67;1.77;;;;;;;;;;5033009;28;20469;-84
2023/11/19 05:22:10;;;;;;;2.40;1.57;;;;;;;;;;5032881;28;20810;-84
2023/11/19 05:24:36;;;;;;;3.10;2.27;;;;;;;;;;5032819;28;20795;-84
2023/11/19 05:27:02;;;;;;;3.70;2.27;;;;;;;;;;5032876;28;20423;-84
2023/11/19 05:29:29;;;;;;;3.77;2.20;;;;;;;;;;5032846;28;20425;-84
2023/11/19 05:31:55;;;;;;;7.57;2.87;;;;;;;;;;5032712;28;20964;-84
2023/11/19 05:34:21;;;;;;;4.10;1.93;;;;;;;;;;5032283;28;20424;-83
2023/11/19 05:36:47;;;;;;;3.23;2.20;;;;;;;;;;5031653;28;20519;-83
2023/11/19 05:39:13;;;;;;;4.20;2.20;;;;;;;;;;5031872;28;20432;-83
2023/11/19 05:41:39;;;;;;;8.40;2.60;;;;;;;;;;5030964;28;20915;-83
2023/11/19 05:44:05;;;;;;;3.20;2.00;;;;;;;;;;5022675;28;20428;-85
2023/11/19 05:46:31;;;;;;;3.20;1.70;;;;;;;;;;5016194;28;20422;-84
2023/11/19 05:48:57;;;;;;;3.27;2.57;;;;;;;;;;5032381;28;20515;-85
2023/11/19 05:51:24;;;;;;;4.30;2.30;;;;;;;;;;5031556;28;20420;-85
2023/11/19 05:53:50;;;;;;;5.50;2.53;;;;;;;;;;5020212;28;20970;-85
2023/11/19 05:56:21;;;;;;;4.20;2.50;;;;;;;;;;5013133;28;20488;-85
2023/11/19 05:58:48;;;;;;;5.77;1.90;;;;;;;;;;5028401;28;20476;-85
2023/11/19 06:01:14;;;;;;;5.10;3.00;;;;;;;;;;5028062;28;20428;-85
2023/11/19 06:03:39;;;;;;;5.43;2.67;;;;;;;;;;5013790;28;20423;-85
2023/11/19 06:06:06;;;;;;;5.10;3.00;;;;;;;;;;5032308;28;20429;-85
2023/11/19 06:08:32;;;;;;;5.07;3.57;;;;;;;;;;4988028;28;20432;-85
2023/11/19 06:11:00;;;;;;;5.30;4.00;;;;;;;;;;5036794;28;20431;-85
2023/11/19 06:13:26;;;;;;;5.43;3.30;;;;;;;;;;5056683;28;20415;-86
2023/11/19 06:15:52;;;;;;;5.03;3.40;;;;;;;;;;5056046;28;20958;-87
2023/11/19 06:18:19;;;;;;;5.27;2.40;;;;;;;;;;5056623;28;20174;-88
2023/11/19 06:20:45;;;;;;;5.23;3.90;;;;;;;;;;5056494;28;20416;-85
2023/11/19 06:23:12;;;;;;;7.27;4.40;;;;;;;;;;5056546;28;20409;-83
2023/11/19 06:25:38;;;;;;;11.40;6.10;;;;;;;;;;5056382;28;20802;-83
2023/11/19 06:28:04;;;;;;;12.37;6.93;;;;;;;;;;5052384;28;20474;-83
2023/11/19 06:30:32;;;;;;;16.87;9.43;;;;;;;;;;5045070;28;20492;-83
2023/11/19 06:32:58;;;;;;;13.80;8.60;;;;;;;;;;5047652;28;20452;-83
2023/11/19 06:35:24;;;;;;;23.40;9.97;;;;;;;;;;5056222;28;20496;-82
2023/11/19 06:37:50;;;;;;;21.23;10.03;;;;;;;;;;5056205;28;20788;-82
2023/11/19 06:40:16;;;;;;;20.20;8.37;;;;;;;;;;5056267;28;20786;-84
2023/11/19 06:42:42;;;;;;;22.33;9.70;;;;;;;;;;5056218;28;20412;-85
2023/11/19 06:45:09;;;;;;;23.67;10.40;;;;;;;;;;5055742;28;20411;-83
2023/11/19 06:47:35;;;;;;;17.33;9.93;;;;;;;;;;5056095;28;20454;-84
2023/11/19 06:50:01;;;;;;;29.83;11.30;;;;;;;;;;5054768;28;20421;-81
2023/11/19 06:52:27;;;;;;;23.33;10.80;;;;;;;;;;5056058;28;20432;-81
2023/11/19 06:54:53;;;;;;;31.40;11.10;;;;;;;;;;5055917;28;20434;-81
2023/11/19 06:57:20;;;;;;;21.80;9.03;;;;;;;;;;5055844;28;20421;-81
2023/11/19 06:59:46;;;;;;;24.63;8.47;;;;;;;;;;5054236;28;20507;-81
2023/11/19 07:02:12;;;;;;;31.30;9.90;;;;;;;;;;5055788;28;20453;-82
2023/11/19 07:04:38;;;;;;;24.53;9.93;;;;;;;;;;5054560;28;20902;-82
2023/11/19 07:07:05;;;;;;;22.87;8.40;;;;;;;;;;5055569;28;20459;-81
2023/11/19 07:09:31;;;;;;;23.67;8.23;;;;;;;;;;5008026;28;20427;-82
2023/11/19 07:11:57;;;;;;;17.20;8.53;;;;;;;;;;5035695;28;20918;-81
2023/11/19 07:14:23;;;;;;;19.70;8.50;;;;;;;;;;5034942;28;20176;-82
2023/11/19 07:16:50;;;;;;;23.07;7.20;;;;;;;;;;5035564;28;20234;-82
2023/11/19 07:19:16;;;;;;;21.07;7.50;;;;;;;;;;5035632;28;20409;-81
2023/11/19 07:21:44;;;;;;;22.93;8.17;;;;;;;;;;5035271;28;20424;-81
2023/11/19 07:24:10;;;;;;;19.27;8.03;;;;;;;;;;5035372;28;21093;-82
2023/11/19 07:26:37;;;;;;;21.20;7.00;;;;;;;;;;5035501;28;20423;-81
2023/11/19 07:29:03;;;;;;;18.60;6.23;;;;;;;;;;5035397;28;20403;-81
2023/11/19 07:31:29;;;;;;;16.63;4.87;;;;;;;;;;5034885;28;20801;-82
2023/11/19 07:33:55;;;;;;;19.50;5.53;;;;;;;;;;5035291;28;20409;-82
2023/11/19 07:36:21;;;;;;;19.33;5.17;;;;;;;;;;5033836;28;20477;-83
2023/11/19 07:38:50;;;;;;;12.27;5.10;;;;;;;;;;5033843;28;20476;-82
2023/11/19 07:41:16;;;;;;;17.70;5.60;;;;;;;;;;5033863;28;20433;-82
2023/11/19 07:43:46;;;;;;;25.17;6.37;;;;;;;;;;5035105;28;20420;-82
2023/11/19 07:46:12;;;;;;;19.77;6.70;;;;;;;;;;5034795;28;20436;-83
2023/11/19 07:48:38;;;;;;;18.20;7.47;;;;;;;;;;5035027;28;20407;-84
2023/11/19 07:51:04;;;;;;;23.50;6.37;;;;;;;;;;5034873;28;20405;-83
2023/11/19 07:53:30;;;;;;;24.83;7.07;;;;;;;;;;5034958;28;20498;-83
2023/11/19 07:55:56;;;;;;;21.53;7.07;;;;;;;;;;5034836;28;20563;-84
2023/11/19 07:58:22;;;;;;;21.97;7.80;;;;;;;;;;5034863;28;20419;-84
2023/11/19 08:00:48;;;;;;;26.53;8.13;;;;;;;;;;5034387;28;20171;-83
2023/11/19 08:03:14;;;;;;;29.27;7.90;;;;;;;;;;5034661;28;20410;-83
2023/11/19 08:05:40;;;;;;;23.47;6.43;;;;;;;;;;5034715;28;20917;-83
2023/11/19 08:08:06;;;;;;;17.53;5.83;;;;;;;;;;5034696;28;20224;-83
2023/11/19 08:10:33;;;;;;;27.63;5.60;;;;;;;;;;5034872;28;21014;-83
2023/11/19 08:12:59;;;;;;;25.10;5.67;;;;;;;;;;5034614;28;20461;-83
2023/11/19 08:15:25;;;;;;;23.33;5.87;;;;;;;;;;5034069;28;20473;-84
2023/11/19 08:17:51;;;;;;;22.17;5.57;;;;;;;;;;5034491;28;20412;-83
2023/11/19 08:20:17;;;;;;;28.10;5.60;;;;;;;;;;5034339;28;20413;-84
2023/11/19 08:22:42;;;;;;;25.13;6.00;;;;;;;;;;5034272;28;20539;-83
2023/11/19 08:25:09;;;;;;;31.53;5.90;;;;;;;;;;5034371;28;20421;-83
2023/11/19 08:27:34;;;;;;;25.50;5.57;;;;;;;;;;5033645;28;20410;-83
2023/11/19 08:30:00;;;;;;;23.20;5.93;;;;;;;;;;5033779;28;20404;-83
2023/11/19 08:32:27;;;;;;;23.27;5.57;;;;;;;;;;5032932;28;20255;-83
2023/11/19 08:34:53;;;;;;;31.63;6.27;;;;;;;;;;5033969;28;20412;-85
2023/11/19 08:37:23;;;;;;;24.23;6.03;;;;;;;;;;5034122;28;20446;-83
2023/11/19 08:39:49;;;;;;;25.07;5.70;;;;;;;;;;5034086;28;20407;-84
2023/11/19 08:42:15;;;;;;;28.27;7.53;;;;;;;;;;5033975;28;20900;-83
2023/11/19 08:44:43;;;;;;;22.17;4.60;;;;;;;;;;5033589;28;20416;-84
2023/11/19 08:47:09;;;;;;;19.40;5.00;;;;;;;;;;5032590;28;20447;-83
2023/11/19 08:49:36;;;;;;;19.83;5.40;;;;;;;;;;5033802;28;20421;-82
2023/11/19 08:52:01;;;;;;;23.03;5.07;;;;;;;;;;5032431;28;20458;-82
2023/11/19 08:54:28;;;;;;;20.33;4.10;;;;;;;;;;5033759;28;20416;-84
2023/11/19 08:56:54;;;;;;;22.17;5.53;;;;;;;;;;5033684;28;20533;-83
2023/11/19 08:59:19;;;;;;;24.00;6.00;;;;;;;;;;4994136;28;20437;-82
2023/11/19 09:01:45;;;;;;;21.83;3.60;;;;;;;;;;5031529;28;20417;-83
2023/11/19 09:04:11;;;;;;;17.17;4.37;;;;;;;;;;5033710;28;20463;-82
2023/11/19 09:06:37;;;;;;;17.83;4.07;;;;;;;;;;5024940;28;20455;-82
2023/11/19 09:09:05;;;;;;;17.83;3.73;;;;;;;;;;5033162;28;20467;-81
2023/11/19 09:11:31;;;;;;;17.30;3.13;;;;;;;;;;5033184;28;20407;-82
2023/11/19 09:13:57;;;;;;;20.27;4.63;;;;;;;;;;5032779;28;20467;-80
2023/11/19 09:16:24;;;;;;;21.80;4.27;;;;;;;;;;5033106;28;20494;-80
2023/11/19 09:18:50;;;;;;;14.87;3.60;;;;;;;;;;5032930;28;20405;-81
2023/11/19 09:21:16;;;;;;;27.80;5.20;;;;;;;;;;5032945;28;20426;-80
2023/11/19 09:23:42;;;;;;;20.80;6.40;;;;;;;;;;5033030;28;20408;-82
2023/11/19 09:26:10;;;;;;;15.63;2.90;;;;;;;;;;5032811;28;20413;-84
2023/11/19 09:28:36;;;;;;;20.30;4.03;;;;;;;;;;5048160;28;20461;-84
2023/11/19 09:31:04;;;;;;;21.00;4.00;;;;;;;;;;5032143;28;20473;-84
2023/11/19 09:33:30;;;;;;;23.40;4.10;;;;;;;;;;5048261;28;20520;-83
2023/11/19 09:35:57;;;;;;;30.17;5.90;;;;;;;;;;5026252;28;20522;-83
2023/11/19 09:38:23;;;;;;;18.27;2.70;;;;;;;;;;5018354;28;20432;-83
2023/11/19 09:40:49;;;;;;;20.53;4.60;;;;;;;;;;5028109;28;20416;-84
2023/11/19 09:43:16;;;;;;;32.37;5.90;;;;;;;;;;5013257;28;20186;-84
2023/11/19 09:45:49;;;;;;;26.03;5.40;;;;;;;;;;5012596;28;20501;-84
2023/11/19 09:48:18;;;;;;;19.33;4.20;;;;;;;;;;5013077;28;20484;-83
2023/11/19 09:50:44;;;;;;;25.70;4.90;;;;;;;;;;5012791;28;20425;-84
2023/11/19 09:53:10;;;;;;;30.90;4.60;;;;;;;;;;5012898;28;20513;-83
2023/11/19 09:55:36;;;;;;;23.33;3.80;;;;;;;;;;5012873;28;20474;-83
2023/11/19 09:58:03;;;;;;;28.33;5.87;;;;;;;;;;5012995;28;20438;-83
2023/11/19 10:00:29;;;;;;;14.90;3.20;;;;;;;;;;5012887;28;20414;-83
2023/11/19 10:02:57;;;;;;;30.33;5.33;;;;;;;;;;5013199;28;20779;-83
2023/11/19 10:05:24;;;;;;;18.13;3.63;;;;;;;;;;5013037;28;20167;-84
2023/11/19 10:07:51;;;;;;;26.17;3.60;;;;;;;;;;5013299;28;20932;-83
2023/11/19 10:10:18;;;;;;;30.10;5.77;;;;;;;;;;5035678;28;20793;-85
2023/11/19 10:12:46;;;;;;;14.77;3.40;;;;;;;;;;5032485;28;20414;-83
2023/11/19 10:15:18;;;;;;;23.93;5.20;;;;;;;;;;5032049;28;20826;-83
2023/11/19 10:17:44;;;;;;;20.40;4.67;;;;;;;;;;5032231;28;20417;-83
2023/11/19 10:20:10;;;;;;;17.47;4.20;;;;;;;;;;5032371;28;20437;-83
2023/11/19 10:22:38;;;;;;;22.53;4.63;;;;;;;;;;5032440;28;20824;-83
2023/11/19 10:25:04;;;;;;;27.37;4.03;;;;;;;;;;5032345;28;20459;-83
2023/11/19 10:27:30;;;;;;;22.03;4.00;;;;;;;;;;5032297;28;20901;-83
2023/11/19 10:29:59;;;;;;;28.00;5.03;;;;;;;;;;5031738;28;20406;-83
2023/11/19 10:32:25;;;;;;;21.37;3.93;;;;;;;;;;5032315;28;20468;-83
2023/11/19 10:34:51;;;;;;;18.70;4.33;;;;;;;;;;5032115;28;20409;-83
2023/11/19 10:37:32;;;;;;;22.27;4.10;;;;;;;;;;5031062;28;20560;-83
2023/11/19 10:39:58;;;;;;;19.97;3.30;;;;;;;;;;5032040;28;20838;-84
2023/11/19 10:42:24;;;;;;;23.37;3.60;;;;;;;;;;5032277;28;20546;-84
2023/11/19 10:44:50;;;;;;;24.17;5.63;;;;;;;;;;5030341;28;20831;-86
2023/11/19 10:47:18;;;;;;;22.03;5.03;;;;;;;;;;5032266;28;20424;-86
2023/11/19 10:49:45;;;;;;;19.47;5.13;;;;;;;;;;5032975;28;20416;-83
2023/11/19 10:52:12;;;;;;;27.30;3.90;;;;;;;;;;5032966;28;20440;-83
2023/11/19 10:54:42;;;;;;;24.77;3.63;;;;;;;;;;5011327;28;20452;-88
2023/11/19 10:57:10;;;;;;;18.60;3.70;;;;;;;;;;5036030;28;20476;-90
2023/11/19 10:59:37;;;;;;;28.93;5.20;;;;;;;;;;5034884;28;20416;-84
2023/11/19 11:02:05;;;;;;;26.40;4.50;;;;;;;;;;5035114;28;20417;-84
2023/11/19 11:04:34;;;;;;;19.63;3.83;;;;;;;;;;5035614;28;20413;-82
2023/11/19 11:07:01;;;;;;;22.33;3.90;;;;;;;;;;5028744;28;20429;-83
2023/11/19 11:09:28;;;;;;;26.07;4.43;;;;;;;;;;5031813;28;20490;-84
2023/11/19 11:11:55;;;;;;;15.53;2.93;;;;;;;;;;5021555;28;20413;-82
2023/11/19 11:14:21;;;;;;;22.43;5.03;;;;;;;;;;5035188;28;20913;-84
2023/11/19 11:16:48;;;;;;;18.93;3.00;;;;;;;;;;5035274;28;20479;-83
2023/11/19 11:19:18;;;;;;;21.37;4.43;;;;;;;;;;5034718;28;20896;-83
2023/11/19 11:21:46;;;;;;;15.40;3.03;;;;;;;;;;5034007;28;20492;-84
2023/11/19 11:24:27;;;;;;;18.83;3.47;;;;;;;;;;5032151;28;20454;-84
2023/11/19 11:27:22;;;;;;;21.17;4.73;;;;;;;;;;5033285;28;20801;-85
2023/11/19 11:29:58;;;;;;;19.53;4.87;;;;;;;;;;5031866;28;20957;-85
2023/11/19 11:32:36;;;;;;;21.87;5.07;;;;;;;;;;5033323;28;20438;-84
2023/11/19 11:35:02;;;;;;;22.60;4.00;;;;;;;;;;5034922;28;20400;-86
2023/11/19 11:37:37;;;;;;;22.80;7.03;;;;;;;;;;5033137;28;20490;-89
2023/11/19 11:40:10;;;;;;;22.90;3.70;;;;;;;;;;5017708;28;20589;-84
2023/11/19 11:42:36;;;;;;;23.50;4.37;;;;;;;;;;5014874;28;20428;-91
2023/11/19 11:45:09;;;;;;;19.90;3.73;;;;;;;;;;5025339;28;20435;-84
2023/11/19 11:47:47;;;;;;;20.10;4.30;;;;;;;;;;5034689;28;20424;-86
2023/11/19 11:50:18;;;;;;;20.10;4.23;;;;;;;;;;5033047;28;20424;-84
2023/11/19 11:52:59;;;;;;;25.93;4.80;;;;;;;;;;5034303;28;20806;-82
2023/11/19 11:55:37;;;;;;;19.27;3.83;;;;;;;;;;5004397;28;21027;-84
2023/11/19 11:58:06;;;;;;;21.37;3.23;;;;;;;;;;5069371;28;20417;-83
2023/11/19 12:00:33;;;;;;;28.47;4.37;;;;;;;;;;5052768;28;20719;-86
2023/11/19 12:03:02;;;;;;;21.30;3.90;;;;;;;;;;5053523;28;20524;-84
2023/11/19 12:05:29;;;;;;;19.13;4.33;;;;;;;;;;5053991;28;20417;-82
2023/11/19 12:07:58;;;;;;;17.43;4.20;;;;;;;;;;5053744;28;20414;-82
2023/11/19 12:10:24;;;;;;;21.97;4.00;;;;;;;;;;5053839;28;20410;-83
2023/11/19 12:12:53;;;;;;;16.70;3.63;;;;;;;;;;5054039;28;20416;-83
2023/11/19 12:15:24;;;;;;;21.43;4.43;;;;;;;;;;5053613;28;20865;-83
2023/11/19 12:17:51;;;;;;;27.90;5.97;;;;;;;;;;5068759;28;20463;-82
2023/11/19 12:20:18;;;;;;;20.13;3.40;;;;;;;;;;5053951;28;20411;-82
2023/11/19 12:22:44;;;;;;;16.17;3.70;;;;;;;;;;5054048;28;20481;-83
2023/11/19 12:25:14;;;;;;;23.77;3.73;;;;;;;;;;5053906;28;20837;-83
2023/11/19 12:27:41;;;;;;;19.00;3.20;;;;;;;;;;5053738;28;20416;-83
2023/11/19 12:30:08;;;;;;;17.10;4.30;;;;;;;;;;5052939;28;20451;-83
2023/11/19 12:32:43;;;;;;;20.57;4.10;;;;;;;;;;5053709;28;20460;-82
2023/11/19 12:35:13;;;;;;;20.60;4.17;;;;;;;;;;5053696;28;20414;-83
2023/11/19 12:37:40;;;;;;;24.20;4.47;;;;;;;;;;5038126;28;20421;-83
2023/11/19 12:40:11;;;;;;;23.23;5.90;;;;;;;;;;5026686;28;20997;-83
2023/11/19 12:42:38;;;;;;;15.23;3.60;;;;;;;;;;5014117;28;20780;-84
2023/11/19 12:45:04;;;;;;;14.33;3.57;;;;;;;;;;5013737;28;20427;-84
2023/11/19 12:47:30;;;;;;;15.77;3.63;;;;;;;;;;5014010;28;21099;-83
2023/11/19 12:49:57;;;;;;;14.73;2.87;;;;;;;;;;5012609;28;20407;-83
2023/11/19 12:52:23;;;;;;;20.30;3.20;;;;;;;;;;5013782;28;20254;-82
2023/11/19 12:54:49;;;;;;;15.93;3.47;;;;;;;;;;4979899;28;20451;-83
2023/11/19 12:57:15;;;;;;;13.93;2.47;;;;;;;;;;5032138;28;21011;-83
2023/11/19 12:59:42;;;;;;;15.43;3.90;;;;;;;;;;5033128;28;20410;-83
2023/11/19 13:02:09;;;;;;;20.10;3.37;;;;;;;;;;5032982;28;20414;-83
2023/11/19 13:04:35;;;;;;;15.17;3.20;;;;;;;;;;5032779;28;20463;-83
2023/11/19 13:07:03;;;;;;;17.10;3.00;;;;;;;;;;5032256;28;20805;-82
2023/11/19 13:09:32;;;;;;;15.83;2.97;;;;;;;;;;5029099;28;20495;-84
2023/11/19 13:11:59;;;;;;;17.10;2.70;;;;;;;;;;5042194;28;20762;-83
2023/11/19 13:14:36;;;;;;;16.30;2.13;;;;;;;;;;5029862;28;20408;-82
2023/11/19 13:17:03;;;;;;;17.63;3.73;;;;;;;;;;5030354;28;20473;-83
2023/11/19 13:19:29;;;;;;;18.97;3.37;;;;;;;;;;5032761;28;20432;-82
2023/11/19 13:21:55;;;;;;;20.67;3.50;;;;;;;;;;5032986;28;20417;-82
2023/11/19 13:24:21;;;;;;;22.00;3.43;;;;;;;;;;5032595;28;20483;-82
2023/11/19 13:26:47;;;;;;;15.50;3.33;;;;;;;;;;5032572;28;20178;-83
2023/11/19 13:29:13;;;;;;;18.70;3.33;;;;;;;;;;5032592;28;20419;-83
2023/11/19 13:31:39;;;;;;;19.20;3.27;;;;;;;;;;5032683;28;20527;-84
2023/11/19 13:34:07;;;;;;;20.67;5.63;;;;;;;;;;5032806;28;20417;-84
2023/11/19 13:36:34;;;;;;;13.60;3.10;;;;;;;;;;5032056;28;20512;-84
2023/11/19 13:39:01;;;;;;;22.37;3.87;;;;;;;;;;5032097;28;20409;-82
2023/11/19 13:41:27;;;;;;;20.03;3.27;;;;;;;;;;5032247;28;20424;-84
2023/11/19 13:43:53;;;;;;;19.07;4.20;;;;;;;;;;5031901;28;20464;-82
2023/11/19 13:46:20;;;;;;;21.93;5.47;;;;;;;;;;5032117;28;20908;-82
2023/11/19 13:48:45;;;;;;;13.17;2.97;;;;;;;;;;5032144;28;20412;-82
2023/11/19 13:51:11;;;;;;;19.53;3.53;;;;;;;;;;5032141;28;20468;-84
2023/11/19 13:53:37;;;;;;;16.60;3.83;;;;;;;;;;5032163;28;20249;-82
2023/11/19 13:56:03;;;;;;;19.70;4.10;;;;;;;;;;5006549;28;20476;-82
2023/11/19 13:58:29;;;;;;;21.67;5.50;;;;;;;;;;5031875;28;20996;-82